Time;durP1;ratioP1;P1;durP2;ratioP2;P2;SDS_P1;SDS_P2;PMS_P1;PMS_P2;Temp;Humidity;BMP_temperature;BMP_pressure;BME280_temperature;BME280_humidity;BME280_pressure;Samples;Min_cycle;Max_cycle;Signal;HPM_P1;HPM_P2
2023/09/05 00:02:14;;;;;;;12.23;7.67;;;;;;;16.78;100.00;98250.38;6242491;23;20011;-72
2023/09/05 00:04:42;;;;;;;9.73;6.30;;;;;;;16.74;100.00;96474.75;6243739;23;20376;-71
2023/09/05 00:07:09;;;;;;;9.45;6.63;;;;;;;16.79;100.00;93654.53;6243201;23;20410;-71
2023/09/05 00:09:34;;;;;;;7.70;6.90;;;;;;;16.83;100.00;89066.63;6242852;23;20418;-71
2023/09/05 00:12:00;;;;;;;9.73;7.00;;;;;;;16.80;100.00;91534.75;6242756;23;20020;-72
2023/09/05 00:14:26;;;;;;;14.52;7.45;;;;;;;16.74;100.00;91173.03;6241794;23;20023;-71
2023/09/05 00:16:51;;;;;;;8.53;7.13;;;;;;;16.70;100.00;88341.22;6242984;23;20500;-72
2023/09/05 00:19:17;;;;;;;7.10;6.33;;;;;;;16.68;100.00;85868.81;6242662;23;20030;-73
2023/09/05 00:21:42;;;;;;;10.70;6.97;;;;;;;16.66;100.00;84454.44;6243073;23;20008;-72
2023/09/05 00:24:31;;;;;;;7.87;6.43;;;;;;;16.62;100.00;83391.09;6216180;23;20028;-74
2023/09/05 00:26:58;;;;;;;8.05;7.25;;;;;;;16.57;100.00;79156.47;6216121;23;20007;-71
2023/09/05 00:29:26;;;;;;;8.52;6.97;;;;;;;16.50;100.00;81964.78;6242437;23;20077;-72
2023/09/05 00:31:58;;;;;;;9.45;7.40;;;;;;;16.67;100.00;75649.53;6242303;23;20427;-72
2023/09/05 00:34:24;;;;;;;10.35;6.90;;;;;;;16.73;100.00;76361.00;6242313;23;20016;-73
2023/09/05 00:36:50;;;;;;;9.90;7.63;;;;;;;16.67;100.00;77761.28;6243039;23;20314;-72
2023/09/05 00:39:16;;;;;;;;;;;;;;;16.68;100.00;79876.16;6242693;23;20011;-71
2023/09/05 00:41:41;;;;;;;11.07;7.70;;;;;;;16.59;100.00;79863.47;6243106;23;19904;-71
2023/09/05 00:44:07;;;;;;;13.80;6.83;;;;;;;16.63;100.00;75644.44;6242495;23;20000;-71
2023/09/05 00:46:33;;;;;;;9.83;7.57;;;;;;;16.62;100.00;78106.81;6244417;23;20040;-71
2023/09/05 00:49:02;;;;;;;12.70;7.82;;;;;;;16.57;100.00;79860.75;6216707;23;20070;-71
2023/09/05 00:51:31;;;;;;;8.65;7.38;;;;;;;16.54;100.00;81970.28;6244774;23;20000;-72
2023/09/05 00:53:57;;;;;;;10.77;7.18;;;;;;;16.44;100.00;79491.28;6244327;23;20000;-71
2023/09/05 00:56:22;;;;;;;12.77;7.07;;;;;;;16.37;100.00;73501.81;6244494;23;20533;-71
2023/09/05 00:58:48;;;;;;;7.77;6.93;;;;;;;16.35;100.00;72445.03;6217559;23;20000;-71
2023/09/05 01:01:13;;;;;;;8.63;7.07;;;;;;;16.35;100.00;68932.53;6243735;23;20008;-72
2023/09/05 01:03:38;;;;;;;9.17;6.70;;;;;;;16.34;100.00;68931.38;6244031;23;19996;-72
2023/09/05 01:06:11;;;;;;;9.23;7.27;;;;;;;16.41;100.00;69641.81;6244390;23;20008;-72
2023/09/05 01:08:48;;;;;;;10.13;7.65;;;;;;;16.40;100.00;70694.34;6243768;23;20381;-71
2023/09/05 01:11:14;;;;;;;8.93;6.82;;;;;;;16.48;100.00;72460.88;6242631;23;20430;-72
2023/09/05 01:13:41;;;;;;;10.63;7.40;;;;;;;16.57;100.00;77396.25;6243538;23;20010;-71
2023/09/05 01:16:08;;;;;;;13.40;7.53;;;;;;;16.66;100.00;84101.81;6217315;23;20000;-71
2023/09/05 01:18:34;;;;;;;9.80;6.63;;;;;;;16.68;100.00;91516.34;6243057;23;20023;-74
2023/09/05 01:21:13;;;;;;;7.90;5.90;;;;;;;16.71;100.00;95055.31;6244540;23;20424;-71
2023/09/05 01:23:45;;;;;;;8.40;6.55;;;;;;;16.72;100.00;99302.31;6243541;23;20419;-71
2023/09/05 01:26:11;;;;;;;8.45;6.60;;;;;;;16.74;100.00;102139.31;6243943;23;20004;-72
2023/09/05 01:28:41;;;;;;;7.57;6.77;;;;;;;16.82;100.00;103569.47;6243478;23;20120;-71
2023/09/05 01:31:09;;;;;;;13.55;6.90;;;;;;;16.78;100.00;108172.91;6243708;23;20007;-71
2023/09/05 01:33:39;;;;;;;9.80;7.20;;;;;;;16.82;100.00;108889.78;6242620;23;20412;-73
2023/09/05 01:36:05;;;;;;;6.70;6.05;;;;;;;16.79;100.00;111014.00;6217219;23;20008;-71
2023/09/05 01:38:30;;;;;;;7.45;6.32;;;;;;;16.73;100.00;111711.97;6243751;23;20090;-71
2023/09/05 01:40:57;;;;;;;10.63;6.23;;;;;;;16.69;100.00;107091.69;6244727;23;20031;-71
2023/09/05 01:43:22;;;;;;;8.95;6.45;;;;;;;16.59;100.00;104947.81;6242656;23;19996;-73
2023/09/05 01:45:47;;;;;;;9.77;6.27;;;;;;;16.56;100.00;103878.69;6243224;23;20004;-72
2023/09/05 01:48:13;;;;;;;7.87;6.77;;;;;;;16.54;100.00;97149.81;6242968;23;20004;-73
2023/09/05 01:50:38;;;;;;;8.77;6.43;;;;;;;16.46;100.00;98197.81;6243724;23;20015;-72
2023/09/05 01:53:03;;;;;;;9.77;5.80;;;;;;;16.40;100.00;93593.44;6243483;23;20067;-73
2023/09/05 01:55:29;;;;;;;7.67;6.23;;;;;;;16.27;100.00;91101.31;6243251;23;20007;-72
2023/09/05 01:57:54;;;;;;;9.90;6.50;;;;;;;16.19;100.00;87913.84;6216512;23;20110;-73
2023/09/05 02:00:19;;;;;;;7.30;6.53;;;;;;;16.10;100.00;84375.22;6243193;23;20042;-72
2023/09/05 02:02:45;;;;;;;7.63;6.10;;;;;;;16.03;100.00;80492.94;6243185;23;20004;-73
2023/09/05 02:05:11;;;;;;;7.47;5.77;;;;;;;15.99;100.00;80486.84;6217992;23;20447;-72
2023/09/05 02:07:36;;;;;;;8.97;5.43;;;;;;;15.95;100.00;74504.59;6242660;23;20008;-72
2023/09/05 02:10:01;;;;;;;13.10;6.07;;;;;;;15.88;100.00;71685.66;6243928;23;20010;-72
2023/09/05 02:12:27;;;;;;;11.50;6.23;;;;;;;15.82;100.00;68520.38;6242685;23;20462;-72
2023/09/05 02:14:53;;;;;;;9.68;6.07;;;;;;;15.78;100.00;67814.38;6244314;23;20004;-72
2023/09/05 02:17:20;;;;;;;6.17;5.57;;;;;;;15.73;100.00;68861.31;6242286;23;20008;-72
2023/09/05 02:19:46;;;;;;;9.18;6.95;;;;;;;15.81;100.00;63962.09;6243732;23;20054;-73
2023/09/05 02:22:11;;;;;;;8.37;6.60;;;;;;;15.80;100.00;61509.88;6243912;23;20004;-72
2023/09/05 02:24:36;;;;;;;9.60;6.50;;;;;;;15.81;100.00;60810.19;6217255;23;20028;-73
2023/09/05 02:27:02;;;;;;;8.23;5.90;;;;;;;15.81;100.00;56961.25;6243769;23;20007;-72
2023/09/05 02:29:27;;;;;;;13.23;6.87;;;;;;;15.80;100.00;54862.50;6216185;23;20062;-72
2023/09/05 02:31:53;;;;;;;12.83;6.73;;;;;;;15.82;100.00;53466.38;6243381;23;20004;-73
2023/09/05 02:34:18;;;;;;;9.73;6.73;;;;;;;15.85;100.00;53469.53;6242465;23;20000;-73
2023/09/05 02:36:44;;;;;;;9.40;6.60;;;;;;;15.91;100.00;53474.50;6243591;23;20004;-73
2023/09/05 02:39:09;;;;;;;8.23;6.53;;;;;;;15.78;100.00;57308.59;6242690;23;20023;-73
2023/09/05 02:41:34;;;;;;;7.97;6.53;;;;;;;15.74;100.00;54157.97;6242477;23;20430;-73
2023/09/05 02:44:00;;;;;;;8.30;6.27;;;;;;;15.79;100.00;52415.56;6243161;23;20274;-72
2023/09/05 02:46:25;;;;;;;7.63;6.10;;;;;;;15.80;100.00;50670.22;6242949;23;20030;-72
2023/09/05 02:48:51;;;;;;;9.60;6.80;;;;;;;15.86;100.00;49977.00;6242754;23;20031;-73
2023/09/05 02:51:16;;;;;;;11.77;6.90;;;;;;;15.94;100.00;51380.78;6216287;23;20094;-73
2023/09/05 02:53:42;;;;;;;16.17;6.80;;;;;;;16.02;100.00;52086.53;6243318;23;20007;-71
2023/09/05 02:56:07;;;;;;;10.13;7.00;;;;;;;16.10;100.00;56639.75;6243421;23;20081;-71
2023/09/05 02:58:33;;;;;;;9.27;6.43;;;;;;;16.25;100.00;64710.75;6242456;23;20441;-73
2023/09/05 03:01:11;;;;;;;12.33;6.80;;;;;;;16.26;100.00;71380.16;6243312;23;19996;-71
2023/09/05 03:03:36;;;;;;;8.70;6.93;;;;;;;16.24;100.00;74540.88;6243505;23;20418;-71
2023/09/05 03:06:13;;;;;;;12.70;6.80;;;;;;;16.31;100.00;78770.00;6216870;23;20006;-71
2023/09/05 03:08:41;;;;;;;8.50;6.95;;;;;;;16.38;100.00;82300.56;6242278;23;20019;-72
2023/09/05 03:11:07;;;;;;;9.88;6.82;;;;;;;16.35;100.00;87583.91;6243100;23;20008;-72
2023/09/05 03:13:32;;;;;;;8.20;6.10;;;;;;;16.30;100.00;87224.63;6242412;23;20026;-71
2023/09/05 03:15:57;;;;;;;8.87;6.43;;;;;;;16.31;100.00;87225.34;6243088;23;20430;-72
2023/09/05 03:18:25;;;;;;;8.50;6.37;;;;;;;16.26;100.00;86866.13;6241141;23;20393;-72
2023/09/05 03:20:50;;;;;;;15.55;6.50;;;;;;;16.29;100.00;87927.81;6243718;23;20011;-71
2023/09/05 03:23:15;;;;;;;9.13;6.27;;;;;;;16.25;100.00;88274.63;6215608;23;20449;-73
2023/09/05 03:25:41;;;;;;;8.90;6.30;;;;;;;16.31;100.00;88636.28;6243095;23;20366;-71
2023/09/05 03:28:09;;;;;;;6.70;6.03;;;;;;;16.30;100.00;91458.94;6242350;23;20011;-71
2023/09/05 03:30:35;;;;;;;7.22;6.45;;;;;;;16.33;100.00;91815.81;6242814;23;20000;-71
2023/09/05 03:33:00;;;;;;;11.60;6.23;;;;;;;16.30;100.00;94283.47;6242376;23;20015;-71
2023/09/05 03:35:25;;;;;;;7.30;6.20;;;;;;;16.25;100.00;92157.34;6243457;23;20080;-72
2023/09/05 03:37:51;;;;;;;8.87;6.57;;;;;;;16.19;100.00;93206.59;6215385;23;20022;-71
2023/09/05 03:40:16;;;;;;;9.43;6.43;;;;;;;16.18;100.00;92498.84;6216484;23;20327;-71
2023/09/05 03:42:43;;;;;;;8.83;6.10;;;;;;;16.17;100.00;91791.25;6242867;23;20043;-71
2023/09/05 03:45:09;;;;;;;9.68;6.57;;;;;;;16.13;100.00;91432.13;6241957;23;20475;-72
2023/09/05 03:47:34;;;;;;;12.00;6.23;;;;;;;16.09;100.00;91779.72;6242289;23;20075;-72
2023/09/05 03:49:59;;;;;;;8.53;6.53;;;;;;;16.07;100.00;92481.81;6242254;23;20000;-71
2023/09/05 03:52:25;;;;;;;16.07;6.43;;;;;;;16.13;100.00;93903.47;6242405;23;20410;-71
2023/09/05 03:54:50;;;;;;;8.40;6.00;;;;;;;16.20;100.00;93561.28;6242561;23;20422;-71
2023/09/05 03:57:16;;;;;;;9.47;6.17;;;;;;;16.13;100.00;97436.59;6241659;23;20004;-73
2023/09/05 03:59:41;;;;;;;11.70;6.03;;;;;;;16.06;100.00;94246.38;6242405;23;20011;-72
2023/09/05 04:02:07;;;;;;;9.40;6.40;;;;;;;16.00;100.00;93177.72;6242390;23;20008;-71
2023/09/05 04:04:32;;;;;;;10.73;6.13;;;;;;;16.06;100.00;90716.44;6216174;23;20430;-71
2023/09/05 04:06:57;;;;;;;9.63;6.27;;;;;;;16.02;100.00;88946.63;6242278;23;20487;-72
2023/09/05 04:09:23;;;;;;;6.97;6.20;;;;;;;16.07;100.00;91775.88;6243421;23;20434;-71
2023/09/05 04:11:48;;;;;;;11.23;6.10;;;;;;;16.11;100.00;97080.72;6242228;23;20016;-72
2023/09/05 04:14:13;;;;;;;8.47;6.60;;;;;;;16.11;100.00;99909.09;6242350;23;20004;-74
2023/09/05 04:16:39;;;;;;;8.17;7.00;;;;;;;16.06;100.00;98839.97;6241394;23;20082;-73
2023/09/05 04:19:06;;;;;;;11.77;6.70;;;;;;;16.09;100.00;100613.16;6216285;23;20008;-71
2023/09/05 04:21:31;;;;;;;;;;;;;;;16.08;100.00;101671.91;6245585;23;20004;-71
2023/09/05 04:23:56;;;;;;;12.88;6.70;;;;;;;16.12;100.00;105218.59;6244570;23;19907;-71
2023/09/05 04:26:22;;;;;;;11.07;6.60;;;;;;;16.08;100.00;107337.69;6244316;23;20497;-71
2023/09/05 04:28:47;;;;;;;10.07;6.50;;;;;;;16.11;100.00;106987.88;6243731;23;20004;-71
2023/09/05 04:31:18;;;;;;;11.10;6.40;;;;;;;16.03;100.00;106974.47;6243524;23;20035;-72
2023/09/05 04:33:43;;;;;;;10.57;6.68;;;;;;;16.05;100.00;105206.25;6245114;23;20487;-71
2023/09/05 04:36:09;;;;;;;10.93;6.17;;;;;;;16.01;100.00;104845.16;6244661;23;20000;-72
2023/09/05 04:38:35;;;;;;;18.73;7.22;;;;;;;16.00;100.00;103074.47;6243773;23;20282;-71
2023/09/05 04:41:01;;;;;;;12.35;6.55;;;;;;;16.01;100.00;100598.84;6244755;23;20000;-72
2023/09/05 04:43:27;;;;;;;11.63;6.78;;;;;;;15.99;100.00;102365.03;6243063;23;20031;-73
2023/09/05 04:45:56;;;;;;;9.73;6.40;;;;;;;15.97;100.00;102007.84;6244600;23;20034;-71
2023/09/05 04:48:24;;;;;;;16.17;6.53;;;;;;;15.98;100.00;99533.81;6242945;23;20047;-72
2023/09/05 04:50:49;;;;;;;8.15;6.68;;;;;;;15.95;100.00;99174.47;6245294;23;20028;-71
2023/09/05 04:53:15;;;;;;;11.23;6.33;;;;;;;15.89;100.00;97044.16;6243741;23;20367;-73
2023/09/05 04:55:44;;;;;;;8.67;5.80;;;;;;;15.83;100.00;93151.22;6244128;23;20315;-71
2023/09/05 04:58:12;;;;;;;11.23;6.65;;;;;;;15.87;100.00;91040.34;6215885;23;20000;-73
2023/09/05 05:00:38;;;;;;;13.20;6.57;;;;;;;15.88;100.00;92452.38;6240991;23;20008;-71
2023/09/05 05:03:04;;;;;;;9.60;6.88;;;;;;;15.89;100.00;93866.53;6216038;23;20357;-74
2023/09/05 05:05:29;;;;;;;8.37;7.10;;;;;;;15.85;100.00;95272.47;6243521;23;20004;-71
2023/09/05 05:07:54;;;;;;;8.73;6.33;;;;;;;15.78;100.00;92790.53;6243498;23;20434;-71
2023/09/05 05:10:20;;;;;;;10.47;6.93;;;;;;;15.75;100.00;88906.41;6216368;23;20023;-72
2023/09/05 05:12:46;;;;;;;13.90;6.70;;;;;;;15.80;100.00;90676.19;6243269;23;20357;-71
2023/09/05 05:15:11;;;;;;;7.80;6.23;;;;;;;15.80;100.00;90676.19;6242994;23;20012;-71
2023/09/05 05:17:37;;;;;;;8.90;6.90;;;;;;;15.77;100.00;88908.66;6243355;23;20008;-71
2023/09/05 05:20:05;;;;;;;12.07;6.80;;;;;;;15.78;100.00;88557.63;6244708;23;20050;-72
2023/09/05 05:22:30;;;;;;;10.75;6.93;;;;;;;15.77;100.00;86442.53;6243289;23;20004;-71
2023/09/05 05:24:56;;;;;;;9.40;6.73;;;;;;;15.74;100.00;89961.84;6244310;23;20358;-71
2023/09/05 05:27:21;;;;;;;11.30;5.93;;;;;;;15.72;100.00;88197.06;6243141;23;20403;-72
2023/09/05 05:29:47;;;;;;;9.93;5.97;;;;;;;15.76;100.00;89260.47;6242885;23;20426;-71
2023/09/05 05:32:12;;;;;;;7.90;6.03;;;;;;;15.75;100.00;91021.28;6242673;23;20434;-72
2023/09/05 05:34:37;;;;;;;11.93;6.40;;;;;;;15.75;100.00;90316.69;6244725;23;20330;-71
2023/09/05 05:37:03;;;;;;;11.30;6.20;;;;;;;15.75;100.00;88905.69;6243245;23;20366;-71
2023/09/05 05:39:29;;;;;;;12.07;7.10;;;;;;;15.78;100.00;90673.91;6244052;23;20338;-71
2023/09/05 05:41:54;;;;;;;8.60;5.97;;;;;;;15.79;100.00;92085.66;6242654;23;20003;-72
2023/09/05 05:44:19;;;;;;;12.90;6.87;;;;;;;15.80;100.00;92087.19;6243310;23;20008;-72
2023/09/05 05:46:45;;;;;;;7.30;5.63;;;;;;;15.84;100.00;93505.72;6215328;23;20023;-72
2023/09/05 05:49:10;;;;;;;9.07;5.90;;;;;;;15.92;100.00;96342.47;6217240;23;20361;-72
2023/09/05 05:51:37;;;;;;;10.17;5.77;;;;;;;15.97;100.00;98470.78;6241605;23;20000;-71
2023/09/05 05:54:03;;;;;;;9.80;6.53;;;;;;;16.01;100.00;99184.41;6243172;23;20046;-71
2023/09/05 05:56:29;;;;;;;9.27;6.07;;;;;;;16.06;100.00;104853.94;6242147;23;20430;-72
2023/09/05 05:58:54;;;;;;;11.77;5.67;;;;;;;16.12;100.00;105927.78;6243524;23;20039;-72
2023/09/05 06:01:19;;;;;;;10.77;6.03;;;;;;;16.18;100.00;109126.94;6213473;23;20008;-71
2023/09/05 06:03:46;;;;;;;12.03;6.30;;;;;;;16.26;100.00;118371.56;6243024;23;20035;-71
2023/09/05 06:06:11;;;;;;;6.90;5.60;;;;;;;16.28;100.00;120152.78;6241239;23;20422;-73
2023/09/05 06:08:37;;;;;;;6.77;5.23;;;;;;;16.35;100.00;124434.94;6242897;23;20014;-71
2023/09/05 06:11:02;;;;;;;9.27;5.70;;;;;;;16.39;100.00;130855.72;6213132;23;19999;-71
2023/09/05 06:13:27;;;;;;;7.97;6.07;;;;;;;16.47;100.00;132299.72;6241601;23;20040;-71
2023/09/05 06:15:53;;;;;;;7.77;5.43;;;;;;;16.55;100.00;138744.94;6243623;23;20490;-71
2023/09/05 06:18:19;;;;;;;7.90;5.47;;;;;;;16.57;100.00;136248.00;6243055;23;20004;-73
2023/09/05 06:20:44;;;;;;;10.20;5.38;;;;;;;16.64;100.00;134835.69;6243947;23;20004;-71
2023/09/05 06:23:10;;;;;;;6.17;4.80;;;;;;;16.77;100.00;149405.66;6243242;23;20002;-73
2023/09/05 06:25:35;;;;;;;10.83;5.50;;;;;;;16.80;100.00;155134.16;6214932;23;20034;-72
2023/09/05 06:28:02;;;;;;;6.10;5.20;;;;;;;16.89;100.00;155657.94;6242316;23;20000;-72
2023/09/05 06:30:27;;;;;;;10.77;5.47;;;;;;;17.00;100.00;155686.53;6214050;23;20012;-72
2023/09/05 06:32:53;;;;;;;8.80;6.10;;;;;;;17.08;100.00;155706.06;6242359;23;20031;-72
2023/09/05 06:35:18;;;;;;;5.63;5.00;;;;;;;17.17;100.00;155729.47;6242869;23;20000;-73
2023/09/05 06:37:44;;;;;;;9.80;5.70;;;;;;;17.26;100.00;155754.22;6241167;23;20093;-72
2023/09/05 06:40:12;;;;;;;10.87;5.27;;;;;;;17.27;100.00;155755.50;6241164;23;20078;-73
2023/09/05 06:42:47;;;;;;;7.88;5.00;;;;;;;17.35;100.00;155776.34;6239757;23;20347;-73
2023/09/05 06:45:12;;;;;;;6.22;5.13;;;;;;;17.41;100.00;155793.31;6242582;23;20028;-73
2023/09/05 06:47:38;;;;;;;8.60;5.10;;;;;;;17.51;100.00;155818.03;6240922;23;20007;-74
2023/09/05 06:50:07;;;;;;;8.67;5.20;;;;;;;17.65;100.00;155854.47;6241680;23;20004;-72
2023/09/05 06:52:32;;;;;;;10.70;4.68;;;;;;;17.79;100.00;155890.94;6241297;23;20494;-72
2023/09/05 06:54:58;;;;;;;8.82;5.50;;;;;;;17.99;100.00;155944.28;6242852;23;20032;-73
2023/09/05 06:57:24;;;;;;;10.73;4.63;;;;;;;18.02;100.00;155950.81;6240552;23;20011;-73
2023/09/05 06:59:50;;;;;;;5.78;4.57;;;;;;;18.08;100.00;155967.75;6216026;23;20011;-73
2023/09/05 07:02:15;;;;;;;11.90;5.18;;;;;;;18.38;100.00;156045.97;6239952;23;20011;-73
2023/09/05 07:04:41;;;;;;;5.77;4.67;;;;;;;18.76;100.00;156143.63;6241271;23;20334;-73
2023/09/05 07:07:08;;;;;;;6.77;4.67;;;;;;;19.45;100.00;156324.88;6242656;23;20008;-73
2023/09/05 07:09:34;;;;;;;10.27;4.68;;;;;;;20.05;100.00;156480.00;6242211;23;20008;-73
2023/09/05 07:12:00;;;;;;;13.75;4.82;;;;;;;20.57;100.00;156615.72;6241318;23;20069;-73
2023/09/05 07:14:26;;;;;;;8.38;4.30;;;;;;;20.85;100.00;156688.78;6239895;23;20422;-73
2023/09/05 07:16:51;;;;;;;5.37;4.17;;;;;;;20.95;100.00;156714.94;6242013;23;20058;-73
2023/09/05 07:19:18;;;;;;;7.47;4.37;;;;;;;21.45;100.00;156845.50;6240312;23;20233;-74
2023/09/05 07:21:44;;;;;;;8.27;4.50;;;;;;;21.50;100.00;156858.56;6239854;23;20004;-73
2023/09/05 07:24:11;;;;;;;7.85;4.38;;;;;;;21.80;100.00;156936.91;6241084;23;20000;-74
2023/09/05 07:26:38;;;;;;;14.95;4.22;;;;;;;21.68;100.00;156906.91;6240385;23;20004;-73
2023/09/05 07:29:10;;;;;;;11.00;4.10;;;;;;;21.71;100.00;156913.44;6239586;23;20061;-73
2023/09/05 07:31:42;;;;;;;15.00;4.20;;;;;;;21.79;100.00;156934.31;6213115;23;20049;-73
2023/09/05 07:34:08;;;;;;;9.02;4.50;;;;;;;21.77;100.00;156929.13;6214373;23;20023;-76
2023/09/05 07:36:35;;;;;;;8.57;3.80;;;;;;;21.76;100.00;156927.78;6239888;23;20015;-74
2023/09/05 07:39:02;;;;;;;7.55;4.28;;;;;;;21.72;100.00;156916.06;6238698;23;20026;-74
2023/09/05 07:41:34;;;;;;;6.43;4.25;;;;;;;21.65;100.00;156897.69;6241553;23;20004;-74
2023/09/05 07:43:59;;;;;;;6.40;4.50;;;;;;;21.54;100.00;156870.28;6241806;23;20311;-74
2023/09/05 07:46:25;;;;;;;7.93;4.20;;;;;;;21.35;100.00;156820.66;6214449;23;20011;-74
2023/09/05 07:48:52;;;;;;;8.37;4.30;;;;;;;21.27;100.00;156798.47;6242009;23;20007;-74
2023/09/05 07:51:18;;;;;;;7.50;4.18;;;;;;;21.29;100.00;156805.00;6213793;23;20043;-74
2023/09/05 07:54:00;;;;;;;11.88;3.97;;;;;;;21.29;100.00;156803.72;6214065;23;20107;-74
2023/09/05 07:56:26;;;;;;;13.07;4.35;;;;;;;21.25;100.00;156793.25;6239928;23;20007;-75
2023/09/05 07:58:51;;;;;;;12.73;3.92;;;;;;;21.22;100.00;156786.75;6239853;23;20000;-74
2023/09/05 08:01:17;;;;;;;12.27;4.73;;;;;;;21.24;100.00;156790.66;6237707;23;20012;-74
2023/09/05 08:03:42;;;;;;;5.73;3.90;;;;;;;21.20;100.00;156781.53;6240957;23;20057;-74
2023/09/05 08:06:08;;;;;;;14.43;4.60;;;;;;;21.30;100.00;156806.31;6241412;23;20026;-75
2023/09/05 08:08:33;;;;;;;5.97;4.00;;;;;;;21.29;100.00;156803.72;6241502;23;20062;-74
2023/09/05 08:10:58;;;;;;;9.07;3.67;;;;;;;21.37;100.00;156824.59;6214427;23;20076;-74
2023/09/05 08:13:25;;;;;;;7.27;3.90;;;;;;;21.38;100.00;156828.50;6234616;23;20070;-75
2023/09/05 08:15:51;;;;;;;5.80;4.03;;;;;;;21.38;100.00;156828.50;6239322;22;20011;-74
2023/09/05 08:18:17;;;;;;;6.00;3.88;;;;;;;21.41;100.00;156836.38;6239625;23;20008;-74
2023/09/05 08:20:43;;;;;;;12.95;4.03;;;;;;;21.49;100.00;156857.22;6240509;22;20468;-74
2023/09/05 08:23:10;;;;;;;7.07;3.80;;;;;;;21.51;100.00;156862.44;6239476;23;20078;-74
2023/09/05 08:25:35;;;;;;;14.45;4.60;;;;;;;21.61;100.00;156888.56;6240798;22;20807;-74
2023/09/05 08:28:00;;;;;;;6.83;3.87;;;;;;;21.70;100.00;156912.13;6241278;22;20083;-74
2023/09/05 08:30:27;;;;;;;6.20;3.60;;;;;;;21.73;100.00;156918.66;6239932;23;20034;-74
2023/09/05 08:33:01;;;;;;;8.20;3.95;;;;;;;21.89;100.00;156961.78;6238242;23;20008;-74
2023/09/05 08:35:26;;;;;;;7.72;4.10;;;;;;;22.05;100.00;157002.22;6239568;22;20122;-74
2023/09/05 08:37:52;;;;;;;11.17;4.00;;;;;;;22.18;100.00;157036.19;6239666;22;20062;-74
2023/09/05 08:40:19;;;;;;;6.85;3.60;;;;;;;22.28;100.00;157062.31;6239017;22;20083;-74
2023/09/05 08:42:47;;;;;;;6.40;4.30;;;;;;;22.34;100.00;157077.97;6237878;23;20512;-74
2023/09/05 08:45:19;;;;;;;13.50;4.53;;;;;;;22.49;100.00;157117.22;6239760;22;20452;-74
2023/09/05 08:47:44;;;;;;;6.00;4.07;;;;;;;22.59;100.00;157143.38;6240308;22;20075;-74
2023/09/05 08:50:10;;;;;;;5.27;3.90;;;;;;;22.53;100.00;157127.69;6240071;22;20381;-73
2023/09/05 08:52:38;;;;;;;8.00;3.70;;;;;;;22.69;100.00;157169.50;6239362;23;20012;-73
2023/09/05 08:55:06;;;;;;;8.80;3.72;;;;;;;22.84;100.00;157208.72;6239449;22;20342;-73
2023/09/05 08:57:35;;;;;;;5.75;3.83;;;;;;;22.98;100.00;157245.28;6238799;22;20000;-73
2023/09/05 09:00:04;;;;;;;8.52;4.55;;;;;;;23.13;100.00;157284.50;6240430;22;20004;-73
2023/09/05 09:02:30;;;;;;;9.43;4.20;;;;;;;23.22;100.00;157308.09;6237444;22;20155;-74
2023/09/05 09:04:56;;;;;;;5.57;4.05;;;;;;;23.28;100.00;157323.78;6241013;22;20024;-73
2023/09/05 09:07:29;;;;;;;10.23;4.57;;;;;;;23.50;100.00;157381.28;6240796;23;20004;-73
2023/09/05 09:09:56;;;;;;;12.05;3.97;;;;;;;23.64;100.00;157417.94;6241864;22;20330;-73
2023/09/05 09:12:31;;;;;;;7.78;3.92;;;;;;;23.76;100.00;157449.28;6241465;22;20113;-73
2023/09/05 09:15:11;;;;;;;6.57;4.30;;;;;;;24.03;100.00;157519.97;6216237;23;20201;-74
2023/09/05 09:17:45;;;;;;;10.90;4.30;;;;;;;24.00;100.00;157512.16;6243400;23;20011;-73
2023/09/05 09:20:14;;;;;;;11.85;4.07;;;;;;;24.17;100.00;157556.63;6238955;23;20024;-71
2023/09/05 09:22:41;;;;;;;7.07;4.28;;;;;;;24.34;100.00;157602.34;6242569;23;20469;-74
2023/09/05 09:25:14;;;;;;;;;;;;;;;24.42;100.00;157622.00;6243382;23;19996;-71
2023/09/05 09:27:42;;;;;;;6.43;4.00;;;;;;;24.52;100.00;157648.16;6241360;23;19910;-73
2023/09/05 09:30:10;;;;;;;9.45;3.97;;;;;;;24.72;100.00;157701.91;6242038;23;20011;-71
2023/09/05 09:32:37;;;;;;;5.60;3.95;;;;;;;24.74;100.00;157707.09;6241439;23;19996;-74
2023/09/05 09:35:06;;;;;;;10.05;4.07;;;;;;;24.95;100.00;157760.75;6242237;23;20008;-71
2023/09/05 09:37:33;;;;;;;6.60;3.90;;;;;;;25.08;100.00;157794.81;6241289;23;20346;-71
2023/09/05 09:40:00;;;;;;;6.63;3.95;;;;;;;24.95;100.00;157760.75;6241200;23;19996;-71
2023/09/05 09:42:26;;;;;;;10.73;4.25;;;;;;;25.11;100.00;157803.97;6214552;23;20012;-73
2023/09/05 09:44:54;;;;;;;8.07;4.95;;;;;;;25.23;100.00;157834.09;6243369;23;20027;-71
2023/09/05 09:47:20;;;;;;;6.82;3.40;;;;;;;25.31;100.00;157856.38;6242156;23;20491;-74
2023/09/05 09:49:51;;;;;;;5.50;3.80;;;;;;;25.36;100.00;157868.16;6243942;23;20000;-73
2023/09/05 09:52:22;;;;;;;8.45;3.75;;;;;;;25.54;100.00;157916.59;6241863;23;20079;-72
2023/09/05 09:54:48;;;;;;;4.00;3.35;;;;;;;25.70;100.00;157958.50;6242328;23;20043;-73
2023/09/05 09:57:21;;;;;;;4.70;3.38;;;;;;;25.70;100.00;157957.16;6240865;23;20038;-73
2023/09/05 09:59:53;;;;;;;5.28;3.40;;;;;;;25.90;100.00;158010.91;6242703;23;20003;-74
2023/09/05 10:02:20;;;;;;;10.07;3.58;;;;;;;26.01;100.00;158038.44;6243366;23;20004;-73
2023/09/05 10:04:46;;;;;;;6.78;3.95;;;;;;;26.18;100.00;158082.94;6243799;23;20327;-74
2023/09/05 10:07:14;;;;;;;;;;;;;;;26.28;100.00;158109.16;6244209;23;20436;-73
2023/09/05 10:09:42;;;;;;;6.65;3.88;;;;;;;26.40;100.00;158140.63;6243615;23;19937;-74
2023/09/05 10:12:08;;;;;;;11.48;4.30;;;;;;;26.59;100.00;158190.44;6243483;23;20178;-73
2023/09/05 10:14:36;;;;;;;6.88;3.85;;;;;;;26.74;100.00;158231.03;6243009;23;20379;-73
2023/09/05 10:17:02;;;;;;;7.22;3.63;;;;;;;26.90;100.00;158271.69;6243372;23;20323;-73
2023/09/05 10:19:29;;;;;;;9.13;4.25;;;;;;;27.11;100.00;158326.75;6216369;23;20430;-73
2023/09/05 10:21:55;;;;;;;;;;;;;;;27.14;100.00;158335.91;6216197;23;19996;-73
2023/09/05 10:24:23;;;;;;;8.80;3.65;;;;;;;27.06;100.00;158313.63;6243696;23;19979;-73
2023/09/05 10:26:49;;;;;;;15.25;4.97;;;;;;;27.32;100.00;158383.16;6242661;23;20089;-73
2023/09/05 10:29:43;;;;;;;9.18;3.65;;;;;;;27.16;100.00;158339.88;6216184;23;20008;-74
2023/09/05 10:32:10;;;;;;;5.43;3.30;;;;;;;27.43;100.00;158411.97;6241941;23;20079;-73
2023/09/05 10:34:47;;;;;;;12.90;3.60;;;;;;;27.51;100.00;158431.66;6215782;23;20107;-73
2023/09/05 10:37:21;;;;;;;6.80;3.42;;;;;;;27.58;100.00;158451.31;6242637;23;20004;-73
2023/09/05 10:39:48;;;;;;;4.90;3.65;;;;;;;27.25;100.00;158363.47;6216437;23;20011;-73
2023/09/05 10:42:14;;;;;;;7.78;4.07;;;;;;;27.59;100.00;158452.66;6241727;23;20037;-74
2023/09/05 10:44:41;;;;;;;11.35;3.67;;;;;;;27.74;100.00;158493.28;6215928;23;20004;-73
2023/09/05 10:47:28;;;;;;;4.45;3.38;;;;;;;27.98;100.00;158556.31;6216381;23;20394;-74
2023/09/05 10:50:02;;;;;;;5.60;3.22;;;;;;;28.17;100.00;158604.84;6242858;23;20015;-73
2023/09/05 10:52:29;;;;;;;6.57;3.00;;;;;;;28.33;100.00;158648.09;6242118;23;20004;-73
2023/09/05 10:55:16;;;;;;;13.23;3.05;;;;;;;28.53;100.00;158699.31;6241964;23;20004;-74
2023/09/05 10:57:42;;;;;;;6.47;2.83;;;;;;;28.64;100.00;158729.50;6240485;23;20014;-73
2023/09/05 11:00:14;;;;;;;4.95;2.50;;;;;;;28.51;100.00;158695.41;6242529;23;20425;-73
2023/09/05 11:02:40;;;;;;;7.75;3.05;;;;;;;28.49;100.00;158688.84;6241415;23;20091;-73
2023/09/05 11:05:11;;;;;;;3.90;2.97;;;;;;;28.64;100.00;158728.22;6243216;23;20400;-74
2023/09/05 11:07:42;;;;;;;7.70;2.90;;;;;;;28.91;100.00;158799.06;6242206;23;20039;-73
2023/09/05 11:10:11;;;;;;;5.88;2.67;;;;;;;28.85;100.00;158783.28;6216093;23;20007;-73
2023/09/05 11:12:38;;;;;;;10.80;3.90;;;;;;;28.97;100.00;158814.88;6225405;23;20070;-74
2023/09/05 11:15:05;;;;;;;4.93;2.70;;;;;;;28.92;100.00;158801.69;6242054;22;20004;-74
2023/09/05 11:17:31;;;;;;;10.13;3.13;;;;;;;28.96;100.00;158812.19;6241250;23;20011;-74
2023/09/05 11:19:56;;;;;;;7.18;2.65;;;;;;;28.99;100.00;158821.44;6243087;23;20084;-73